Date,TemperatureHighF,TemperatureAvgF,TemperatureLowF,DewpointHighF,DewpointAvgF,DewpointLowF,HumidityHigh,HumidityAvg,HumidityLow,PressureMaxIn,PressureMinIn,WindSpeedMaxMPH,WindSpeedAvgMPH,GustSpeedMaxMPH,PrecipitationSumIn
2013-1-1,37.2,32.5,20.6,24.5,16.4,4.9,63,52,39,29.87,29.65,21,5,30,0.00
2013-1-2,30.7,22.0,13.5,14.8,6.8,0.0,63,52,43,30.04,29.83,17,4,24,0.00
2013-1-3,25.8,16.8,7.2,9.5,-1.7,-7.0,56,44,26,30.08,29.94,13,3,19,0.00
2013-1-4,39.5,31.2,22.2,22.4,17.9,9.1,70,58,45,29.93,29.75,13,3,24,0.00
2013-1-5,42.9,35.6,29.7,22.6,18.7,12.8,66,51,31,30.20,29.79,15,2,22,0.00
2013-1-6,36.6,30.0,29.1,25.9,20.8,19.8,70,68,65,30.17,29.89,4,0,6,0.00
2013-1-7,40.3,35.2,30.4,28.7,24.0,13.7,80,65,37,30.34,29.90,16,2,19,0.00
2013-1-8,47.4,38.7,30.1,27.9,26.4,25.1,85,63,42,30.31,30.19,16,3,22,0.00
2013-1-9,45.1,38.9,30.1,34.6,28.5,25.4,85,67,49,30.34,29.94,14,2,21,0.00
2013-1-10,47.9,42.7,35.8,26.8,22.0,18.9,58,44,32,30.47,29.97,27,6,33,0.00
2013-1-11,42.5,37.3,30.9,36.6,27.8,22.1,91,69,56,30.46,30.17,7,1,12,0.06
2013-1-12,47.1,43.1,38.9,42.7,40.3,36.5,93,90,84,30.18,30.07,6,0,9,0.00
2013-1-13,53.3,48.3,43.9,49.8,45.7,41.7,94,91,88,30.09,29.93,10,1,15,0.00
2013-1-14,62.0,53.4,43.3,52.7,41.9,24.9,92,68,35,30.19,29.80,16,4,22,0.00
2013-1-15,43.3,40.0,36.9,27.3,23.5,20.9,59,52,47,30.26,30.17,9,2,14,0.00
2013-1-16,36.9,34.3,31.9,32.6,28.6,19.8,92,81,51,30.18,29.76,7,1,10,0.26
2013-1-17,42.6,36.3,30.7,32.8,26.6,10.3,92,70,42,30.03,29.78,15,3,20,0.00
2013-1-18,30.4,24.0,18.9,9.5,-2.5,-10.0,42,31,22,30.39,30.00,15,4,25,0.00
2013-1-19,49.2,38.4,24.1,31.1,19.9,2.7,67,48,31,30.33,29.83,18,4,26,0.00
2013-1-20,55.1,42.9,29.7,32.3,23.2,6.5,67,47,27,29.86,29.48,25,6,34,0.00
2013-1-21,29.7,26.0,23.0,20.5,8.0,1.4,83,48,30,30.04,29.74,19,3,27,0.01
2013-1-22,25.8,21.8,14.6,19.5,6.9,-4.0,82,55,29,30.01,29.69,18,4,23,0.00
2013-1-23,16.9,12.7,8.4,-1.0,-9.7,-15.0,54,35,23,30.08,30.00,22,5,28,0.00
2013-1-24,21.0,12.4,4.3,-9.0,-12.1,-15.0,48,32,19,30.15,29.99,19,6,27,0.00
2013-1-25,24.8,17.5,10.0,11.9,-9.1,-16.0,75,31,18,30.24,30.00,16,4,22,0.00
2013-1-26,25.6,18.8,13.3,12.4,1.2,-10.0,78,49,24,30.17,29.94,17,4,23,0.00
2013-1-27,31.2,22.2,13.8,3.3,-2.0,-8.0,56,36,21,30.40,30.17,17,5,24,0.00
2013-1-28,32.5,26.7,21.1,28.1,10.5,-2.0,90,54,24,30.38,29.95,9,1,11,0.12
2013-1-29,36.8,32.1,27.0,32.5,28.3,24.4,91,86,80,30.13,29.95,5,1,8,0.01
2013-1-30,62.1,51.1,36.3,56.8,47.6,32.5,94,88,79,30.10,29.42,20,4,27,0.04
2013-1-31,61.2,49.2,32.4,57.9,35.5,11.4,91,63,28,29.53,28.92,28,10,43,0.58
2013-2-1,34.9,29.8,23.6,14.6,5.5,0.7,48,36,24,30.01,29.53,25,7,28,0.00
2013-2-2,31.0,25.6,19.2,10.1,3.9,-1.0,47,39,29,30.20,29.98,13,3,17,0.00
2013-2-3,27.5,25.1,23.9,18.8,15.7,9.4,80,68,46,29.99,29.91,9,2,16,0.00
2013-2-4,25.7,23.9,22.5,6.9,6.1,5.2,49,46,41,29.87,29.81,11,5,18,0.00
2013-2-5,30.1,26.4,22.5,22.8,11.1,5.5,80,53,40,29.96,29.87,15,2,16,0.01
2013-2-6,40.3,31.8,27.3,25.5,18.1,1.4,85,60,31,30.22,29.86,18,3,23,0.00
2013-2-7,30.4,26.2,20.0,17.9,0.8,-4.0,62,33,24,30.46,30.23,12,3,20,0.00
2013-2-8,34.1,32.1,28.8,31.0,26.8,18.1,92,81,63,30.43,29.54,21,8,28,0.28
2013-2-9,32.1,23.8,18.4,30.0,19.7,10.9,92,85,72,30.12,29.49,22,10,31,0.09
2013-2-10,39.5,26.3,12.3,14.5,8.7,0.5,72,52,20,30.34,30.12,7,3,11,0.00
2013-2-11,45.2,41.2,30.3,43.5,38.2,19.9,94,89,65,30.15,29.54,11,1,20,0.13
2013-2-12,44.8,42.3,36.5,43.1,32.0,24.4,94,69,47,29.81,29.54,21,5,26,0.00
2013-2-13,43.9,39.0,32.2,26.9,24.9,21.8,67,57,43,29.81,29.62,10,4,12,0.00
2013-2-14,44.6,38.9,33.2,26.2,22.6,16.7,65,53,34,29.93,29.64,10,2,14,0.00
2013-2-15,52.0,42.4,33.7,34.5,30.1,23.8,89,63,46,29.94,29.84,14,3,16,0.00
2013-2-16,41.5,38.5,33.2,34.5,28.9,21.6,90,69,54,29.89,29.66,13,2,18,0.01
2013-2-17,36.3,26.8,19.4,21.6,12.4,0.5,84,56,37,29.64,29.32,25,6,36,0.08
2013-2-18,32.2,25.8,16.1,2.3,-0.1,-5.0,46,33,20,30.09,29.61,27,7,30,0.00
2013-2-19,49.1,38.6,25.1,43.1,23.2,0.0,94,56,32,30.10,29.52,12,2,19,0.29
2013-2-20,43.6,33.9,27.5,41.7,18.8,7.3,93,56,33,29.72,29.48,24,7,28,0.00
2013-2-21,34.1,28.9,25.6,14.3,11.1,7.5,59,47,35,30.10,29.71,22,7,27,0.00
2013-2-22,40.3,33.2,26.3,25.3,19.6,14.6,69,58,40,30.32,30.12,14,3,19,0.00
2013-2-23,40.5,37.1,33.5,34.4,28.4,22.9,92,71,61,30.28,29.87,9,2,14,0.18
2013-2-24,39.1,35.8,31.8,37.5,33.9,30.0,94,93,92,29.86,29.63,14,4,22,0.42
2013-2-25,41.8,36.3,30.9,31.8,29.1,25.4,93,76,56,30.19,29.83,10,1,12,0.00
2013-2-26,46.4,38.9,31.8,33.8,29.1,23.5,91,69,46,30.28,30.10,12,3,17,0.00
2013-2-27,42.6,41.1,39.8,40.4,38.4,30.8,96,90,70,30.10,29.50,19,6,29,1.40
2013-2-28,48.2,40.3,35.0,38.4,34.9,33.4,95,82,60,29.58,29.46,9,1,10,0.00
2013-3-1,42.1,39.5,37.0,34.8,29.2,26.0,83,67,55,29.62,29.47,13,3,17,0.00
2013-3-2,44.8,39.0,33.8,27.9,25.5,23.3,67,59,47,29.61,29.57,11,3,17,0.00
2013-3-3,43.8,37.3,33.8,31.3,27.3,23.3,87,67,57,29.58,29.50,10,3,15,0.00
2013-3-4,41.5,35.5,30.9,28.1,22.6,19.2,79,60,41,29.67,29.51,19,7,25,0.00
2013-3-5,45.2,38.6,32.4,33.2,26.5,20.8,75,62,48,30.01,29.67,19,3,24,0.00
2013-3-6,40.9,38.5,36.5,35.4,32.7,27.5,87,80,59,30.05,29.98,24,8,33,0.07
2013-3-7,37.2,33.4,31.5,31.6,29.8,27.5,92,87,69,30.01,29.93,24,8,30,0.20
2013-3-8,40.3,34.0,30.3,33.2,28.5,21.9,94,82,50,30.08,29.88,20,6,32,0.51
2013-3-9,43.5,37.3,32.7,30.6,25.6,20.4,85,63,50,30.30,30.08,13,3,18,0.00
2013-3-10,42.9,36.3,30.3,31.5,29.4,27.1,88,77,60,30.35,30.27,10,2,12,0.00
2013-3-11,54.4,43.4,36.3,40.1,35.3,31.3,88,74,53,30.27,30.10,14,3,18,0.00
2013-3-12,57.5,50.5,42.3,53.4,47.2,39.2,93,88,74,30.11,29.67,16,3,22,0.29
2013-3-13,53.3,46.2,39.2,51.5,29.3,16.6,94,56,27,29.72,29.64,16,4,21,0.01
2013-3-14,39.1,33.2,24.1,23.1,12.8,3.8,59,43,31,29.77,29.65,18,5,24,0.00
2013-3-15,42.3,31.2,21.0,25.5,9.3,0.4,64,41,19,29.81,29.57,18,6,24,0.00
2013-3-16,42.1,35.7,30.0,25.0,12.2,3.1,64,40,22,29.82,29.60,14,2,21,0.00
2013-3-17,39.9,32.8,27.3,18.5,6.9,0.0,54,35,19,30.26,29.81,20,4,27,0.00
2013-3-18,38.9,29.7,20.6,26.6,7.3,-4.0,85,40,22,30.40,30.20,12,3,17,0.03
2013-3-19,37.0,33.6,28.8,35.1,31.6,26.6,94,92,86,30.18,29.54,18,6,27,1.27
2013-3-20,39.5,32.7,26.6,26.5,19.7,15.4,91,61,39,29.75,29.63,27,5,29,0.00
2013-3-21,37.9,32.9,29.3,29.5,21.5,13.3,88,64,40,29.76,29.55,7,1,11,0.00
2013-3-22,40.9,34.9,29.4,27.8,18.6,12.1,86,53,32,29.68,29.54,14,4,19,0.00
2013-3-23,44.8,36.9,30.0,22.3,17.5,12.3,66,47,28,29.72,29.57,25,6,28,0.00
2013-3-24,48.8,40.1,32.5,29.1,21.6,18.2,64,48,31,29.75,29.67,15,3,21,0.00
2013-3-25,45.7,39.8,35.0,33.6,29.0,24.7,71,65,58,29.71,29.46,17,5,23,0.00
2013-3-26,52.6,42.4,35.2,31.7,22.6,14.3,85,49,23,29.71,29.47,14,4,18,0.02
2013-3-27,55.4,44.9,33.8,27.1,21.0,18.2,58,40,23,29.80,29.67,15,4,23,0.00
2013-3-28,48.5,45.4,40.5,33.8,30.9,26.7,77,57,44,29.95,29.86,10,2,15,0.00
2013-3-29,57.6,48.0,38.5,33.2,30.1,24.1,72,52,29,29.98,29.90,14,3,25,0.00
2013-3-30,58.6,49.2,39.5,31.7,22.4,9.2,67,39,15,30.04,29.94,12,2,16,0.00
2013-3-31,62.3,48.6,34.6,39.3,24.5,16.4,71,42,18,30.06,29.70,17,3,25,0.01
2013-4-1,64.5,48.5,36.5,45.8,35.5,7.8,94,65,27,29.72,29.44,17,5,26,0.10
2013-4-2,41.6,35.8,31.0,14.9,10.2,5.7,47,35,24,29.88,29.74,26,7,33,0.00
2013-4-3,47.1,37.8,31.2,17.3,10.2,4.0,54,33,17,30.09,29.86,25,8,36,0.00
2013-4-4,57.6,42.9,31.0,24.5,13.6,5.9,53,33,13,30.23,29.99,15,4,20,0.00
2013-4-5,61.5,47.1,39.1,29.1,24.3,17.5,64,44,19,30.00,29.56,15,3,25,0.00
2013-4-6,48.0,40.4,33.4,24.0,7.1,-4.0,51,27,12,30.27,29.82,23,5,27,0.00
2013-4-7,53.5,44.5,33.4,39.9,25.3,9.6,76,49,26,30.27,29.95,24,4,31,0.00
2013-4-8,66.6,53.8,45.7,43.6,38.6,30.4,88,60,27,30.04,29.89,11,2,15,0.00
2013-4-9,73.2,56.3,48.2,51.0,42.7,36.4,90,64,31,30.03,29.80,17,3,24,0.08
2013-4-10,64.7,52.7,47.6,48.1,43.6,40.6,86,72,49,29.97,29.81,9,1,12,0.17
2013-4-11,53.6,48.0,44.8,46.4,40.5,33.7,96,76,56,30.09,29.77,11,2,14,0.03
2013-4-12,44.9,40.7,38.6,38.0,34.8,28.5,92,80,61,30.12,29.72,28,6,28,0.38
2013-4-13,53.5,44.1,36.9,39.7,36.1,32.8,92,75,46,29.86,29.71,15,3,19,0.01
2013-4-14,53.9,47.9,42.2,39.7,30.5,21.6,77,53,29,30.15,29.86,16,3,23,0.00
2013-4-15,56.5,47.0,37.8,38.3,31.5,26.9,70,56,35,30.34,30.15,14,2,15,0.00
2013-4-16,65.8,53.5,41.6,49.3,40.0,33.8,85,62,38,30.35,30.01,16,4,29,0.00
2013-4-17,68.6,60.4,53.2,51.9,34.6,23.7,80,43,20,30.27,30.00,13,4,22,0.00
2013-4-18,65.5,55.1,48.3,42.0,32.0,22.8,65,43,26,30.37,30.10,15,4,21,0.00
2013-4-19,76.5,64.5,53.5,62.9,56.9,42.4,94,78,52,30.09,29.61,21,5,30,0.00
2013-4-20,66.8,55.4,45.8,62.7,39.4,21.0,92,60,30,30.15,29.55,21,6,26,0.47
2013-4-21,54.2,44.4,36.3,29.6,20.3,14.1,56,39,22,30.63,30.16,18,4,22,0.00
2013-4-22,52.3,44.4,37.3,34.5,29.2,21.1,71,56,30,30.71,30.55,17,4,22,0.00
2013-4-23,43.5,42.4,41.5,41.4,37.8,29.8,96,84,63,30.54,30.07,15,5,18,0.01
2013-4-24,71.6,50.3,42.9,45.9,42.2,-99.9,93,79,36,30.06,29.71,16,5,24,0.00
2013-4-25,65.2,55.1,49.5,52.4,38.9,20.1,88,61,19,30.20,29.77,15,3,25,0.02
2013-4-26,58.1,51.2,47.0,41.2,34.1,26.4,80,53,38,30.37,30.21,14,3,17,0.00
2013-4-27,64.2,53.8,42.6,41.7,34.5,26.3,89,53,25,30.36,30.24,12,2,16,0.00
2013-4-28,68.8,56.4,44.5,38.8,33.3,24.2,75,45,23,30.29,30.16,17,2,18,0.00
2013-4-29,71.3,58.9,49.6,45.0,35.1,9.3,78,46,14,30.23,30.13,15,2,17,0.00
2013-4-30,69.4,57.7,48.5,37.5,26.6,5.1,61,34,8,30.31,30.20,12,2,16,0.00
2013-5-1,68.3,57.5,44.6,37.4,30.6,22.0,72,39,18,30.42,30.32,9,1,14,0.00
2013-5-2,78.3,57.7,48.5,46.4,40.0,31.0,80,56,20,30.43,30.31,15,2,20,0.00
2013-5-3,58.7,51.0,44.5,42.1,39.6,38.0,83,66,51,30.47,30.32,13,3,17,0.00
2013-5-4,56.6,50.0,44.8,42.9,39.0,35.8,80,67,50,30.32,30.26,14,3,17,0.00
2013-5-5,58.9,49.7,40.1,42.3,38.1,34.6,90,67,41,30.28,30.21,12,2,15,0.00
2013-5-6,64.7,52.3,42.2,49.4,44.7,40.0,94,77,48,30.24,30.10,10,1,11,0.00
2013-5-7,75.6,63.8,48.5,57.0,50.2,45.2,90,64,38,30.12,30.04,10,2,15,0.00
2013-5-8,71.3,62.0,57.5,61.3,56.6,53.9,91,83,66,30.15,30.00,14,2,17,0.23
2013-5-9,69.4,60.0,57.5,62.3,57.5,55.1,96,92,64,30.00,29.84,7,1,11,0.45
2013-5-10,80.1,66.8,56.3,59.1,55.8,51.4,96,71,37,29.90,29.83,9,1,13,0.00
2013-5-11,73.9,65.2,60.1,61.9,58.1,52.7,90,79,59,29.86,29.64,13,2,24,0.02
2013-5-12,73.0,62.8,52.9,60.8,50.3,25.5,95,68,30,29.75,29.51,18,2,25,0.07
2013-5-13,60.5,52.5,46.2,31.7,27.1,22.8,54,38,25,29.97,29.75,14,3,21,0.00
2013-5-14,60.4,51.9,42.8,33.6,27.8,22.7,64,41,24,29.99,29.91,17,3,21,0.00
2013-5-15,68.6,54.9,41.9,52.0,37.5,25.2,85,56,24,30.00,29.62,17,2,25,0.01
2013-5-16,82.8,69.1,51.9,51.7,39.0,27.4,91,42,16,29.73,29.57,19,3,30,0.00
2013-5-17,69.4,61.2,54.1,45.2,39.3,30.3,64,46,26,30.16,29.75,14,4,23,0.00
2013-5-18,73.5,61.8,49.2,46.9,42.3,33.6,84,52,25,30.25,30.16,12,2,16,0.00
2013-5-19,73.9,58.7,52.5,54.8,49.1,45.5,93,72,40,30.29,30.18,10,1,15,0.07
2013-5-20,83.4,68.2,56.5,64.0,59.5,54.5,96,77,46,30.17,29.85,10,1,16,0.12
2013-5-21,76.8,62.5,52.8,61.3,56.6,50.2,94,82,56,29.95,29.82,12,2,19,0.03
2013-5-22,66.9,57.2,51.6,58.2,52.7,49.3,94,86,69,30.00,29.83,10,2,18,0.03
2013-5-23,77.6,65.5,55.0,67.3,60.5,53.4,97,85,66,29.87,29.76,14,2,23,0.07
2013-5-24,72.1,63.9,50.1,67.2,61.2,48.7,95,91,75,29.77,29.60,12,2,19,0.68
2013-5-25,52.5,48.7,42.9,50.3,46.8,38.0,100,93,83,29.75,29.64,19,5,22,0.24
2013-5-26,59.6,49.8,40.8,42.5,37.9,34.9,90,66,41,30.04,29.66,15,5,31,0.00
2013-5-27,73.7,59.8,44.2,44.1,36.1,27.9,82,48,19,30.11,30.01,16,3,24,0.00
2013-5-28,73.5,61.7,48.3,52.7,44.9,33.9,87,57,29,30.18,30.10,9,1,15,0.00
2013-5-29,73.2,64.0,59.5,63.2,59.4,50.9,95,86,69,30.14,29.94,7,1,14,0.78
2013-5-30,89.3,77.4,63.9,67.3,64.2,61.9,96,68,41,30.02,29.93,13,2,19,0.01
2013-5-31,97.1,83.5,68.6,66.3,63.1,56.4,88,55,27,30.03,29.87,9,1,17,0.00
2013-6-1,95.9,83.1,71.1,66.3,62.5,58.9,73,52,30,29.92,29.80,13,2,18,0.00
2013-6-2,92.9,80.1,69.9,67.1,64.3,59.6,83,61,35,29.83,29.67,20,3,31,0.00
2013-6-3,78.5,70.6,65.2,67.2,63.0,41.5,93,78,42,29.79,29.69,9,1,14,0.31
2013-6-4,72.5,64.2,54.1,44.6,41.3,38.6,60,44,31,30.04,29.77,14,3,22,0.00
2013-6-5,77.0,65.7,54.7,48.8,43.7,34.4,74,47,27,30.13,30.04,10,2,14,0.00
2013-6-6,77.6,66.6,57.0,54.0,47.7,39.4,74,52,30,30.13,30.04,11,2,13,0.00
2013-6-7,61.2,57.0,54.8,56.9,53.8,46.9,96,89,67,30.07,29.76,11,3,19,2.13
2013-6-8,79.9,64.8,54.5,62.3,57.1,53.3,97,79,52,29.94,29.55,13,3,18,0.61
2013-6-9,81.4,71.1,59.6,58.0,53.9,49.0,89,58,33,30.10,29.94,12,2,17,0.00
2013-6-10,71.1,64.3,58.6,58.7,55.9,52.4,94,75,54,30.15,29.97,10,2,16,0.12
2013-6-11,64.5,59.5,56.6,59.4,56.8,54.8,98,91,77,29.97,29.52,15,2,21,1.45
2013-6-12,72.1,63.3,57.0,60.1,54.7,50.6,97,76,47,29.75,29.50,19,4,28,0.04
2013-6-13,70.3,59.6,53.6,57.7,52.8,49.3,93,79,48,29.76,29.62,10,1,18,0.46
2013-6-14,73.9,61.6,52.3,55.0,52.2,48.1,97,74,43,29.69,29.58,13,3,18,0.88
2013-6-15,80.7,70.1,58.3,54.3,44.7,35.7,85,44,21,29.88,29.70,12,2,18,0.00
2013-6-16,79.0,69.8,59.0,62.2,51.3,44.8,77,53,33,29.88,29.66,14,1,16,0.00
2013-6-17,89.9,72.7,62.6,62.9,58.4,50.4,93,66,27,29.85,29.71,13,1,25,0.11
2013-6-18,77.7,65.0,59.5,61.9,58.9,55.8,94,82,50,29.89,29.83,10,1,15,0.34
2013-6-19,75.3,65.9,57.2,57.4,49.9,41.1,93,61,31,30.09,29.85,11,2,15,0.01
2013-6-20,82.0,69.5,55.3,55.4,49.9,42.6,89,54,27,30.20,30.09,9,1,14,0.00
2013-6-21,87.2,73.7,60.4,62.9,55.9,50.4,77,56,32,30.20,30.12,11,1,14,0.00
2013-6-22,87.6,72.6,65.3,60.1,56.7,54.3,69,59,33,30.16,30.10,11,1,18,0.00
2013-6-23,93.4,79.1,66.8,69.0,62.8,54.3,72,59,44,30.10,29.93,11,2,19,0.00
2013-6-24,95.4,82.8,71.6,71.5,68.2,63.7,91,65,36,29.96,29.81,13,2,23,0.21
2013-6-25,94.7,82.4,70.8,68.7,66.0,61.3,91,61,34,29.86,29.66,11,2,18,0.00
2013-6-26,87.8,77.0,69.6,69.5,67.1,65.3,92,73,50,29.80,29.66,7,1,13,0.07
2013-6-27,71.6,66.2,62.4,66.9,63.3,61.2,96,91,77,29.81,29.71,7,2,13,0.02
2013-6-28,84.3,72.1,62.6,73.1,67.3,61.4,97,86,59,29.71,29.43,15,4,23,0.47
2013-6-29,86.5,76.4,71.8,70.5,68.3,65.4,92,77,51,29.67,29.46,19,3,24,0.00
2013-6-30,87.4,77.9,70.9,71.0,68.8,67.0,90,75,55,29.88,29.67,12,2,20,0.00
2013-7-1,86.1,77.1,72.5,73.8,71.4,70.0,94,84,62,30.03,29.88,10,1,17,0.03
2013-7-2,86.1,75.2,64.7,72.3,68.5,60.5,90,81,61,30.15,30.02,9,2,16,0.00
2013-7-3,92.1,78.8,64.0,71.8,67.8,60.3,90,71,46,30.14,30.07,13,1,18,0.00
2013-7-4,96.6,84.7,74.6,73.3,71.3,68.0,90,67,41,30.15,30.03,13,1,17,0.00
2013-7-5,97.8,86.9,78.1,73.2,70.9,67.5,80,61,38,30.10,29.97,11,2,16,0.00
2013-7-6,92.5,84.7,77.9,72.6,69.6,62.2,80,62,42,30.01,29.91,14,2,19,0.00
2013-7-7,94.7,82.6,74.2,72.8,67.6,62.7,81,62,42,29.96,29.84,10,1,13,0.00
2013-7-8,86.5,78.3,69.1,73.4,70.1,64.0,89,77,60,30.00,29.84,12,2,12,0.02
2013-7-9,74.7,69.9,66.1,66.2,64.4,63.4,93,83,72,30.05,29.98,7,1,10,0.00
2013-7-10,88.2,75.6,67.8,74.2,69.6,64.0,95,83,58,30.02,29.73,17,2,21,0.02
2013-7-11,83.6,77.6,73.7,73.9,70.8,66.0,92,80,62,29.86,29.71,6,1,14,0.11
2013-7-12,77.6,72.3,67.9,69.4,59.8,53.4,88,66,47,30.14,29.86,13,4,18,0.00
2013-7-13,77.4,71.1,67.4,68.2,65.0,61.2,90,82,68,30.25,30.14,9,1,11,0.00
2013-7-14,93.8,81.2,71.6,73.5,69.6,63.0,96,71,37,30.24,30.14,9,1,14,0.00
2013-7-15,93.4,83.6,74.7,72.4,69.6,65.0,89,65,42,30.14,30.03,7,1,14,0.00
2013-7-16,95.4,83.6,74.6,72.8,65.9,59.3,82,57,31,30.10,30.04,9,1,13,0.00
2013-7-17,96.8,85.8,75.8,71.6,67.8,61.4,77,57,32,30.11,29.93,10,1,14,0.00
2013-7-18,93.4,83.2,78.8,73.1,70.3,64.2,78,66,42,29.95,29.88,9,2,14,0.00
2013-7-19,100.4,89.0,79.2,76.4,72.0,64.5,83,60,32,29.89,29.65,20,2,22,0.00
2013-7-20,95.9,87.2,79.8,75.0,71.2,60.6,81,61,38,29.73,29.58,12,2,19,0.00
2013-7-21,81.6,76.5,72.5,68.4,62.9,57.4,85,64,46,29.92,29.74,10,2,15,0.08
2013-7-22,83.2,74.2,69.9,68.9,66.9,63.6,92,79,58,29.95,29.83,13,2,15,0.00
2013-7-23,82.2,73.6,70.4,76.2,71.1,67.0,96,92,76,29.83,29.48,7,1,16,1.16
2013-7-24,88.6,78.0,69.1,73.6,66.3,53.6,97,70,46,29.89,29.52,14,2,17,0.01
2013-7-25,68.8,62.6,59.9,59.4,53.9,46.9,96,74,55,30.04,29.89,13,3,18,0.32
2013-7-26,71.5,65.3,60.5,67.4,62.8,59.3,96,92,77,30.00,29.86,13,2,20,0.52
2013-7-27,87.0,73.6,61.6,65.7,62.0,58.2,93,70,40,30.00,29.93,10,1,17,0.09
2013-7-28,81.4,72.5,68.3,69.1,66.9,65.2,92,83,63,29.96,29.91,8,1,11,0.06
2013-7-29,85.3,74.2,68.4,69.9,67.3,63.2,94,81,54,29.97,29.90,13,1,17,0.03
2013-7-30,83.6,74.2,63.4,68.0,58.1,49.5,96,62,32,30.03,29.96,12,2,17,0.02
2013-7-31,82.0,73.9,65.0,62.8,58.3,51.2,81,60,37,30.07,29.98,7,1,11,0.01
2013-8-1,85.7,74.0,66.1,64.2,60.9,57.8,87,66,40,29.99,29.83,14,1,17,0.01
2013-8-2,84.5,73.7,65.6,68.7,61.4,53.7,96,69,36,29.83,29.72,14,1,18,0.32
2013-8-3,81.2,73.4,67.4,63.5,60.9,57.7,82,66,48,29.81,29.72,9,1,16,0.00
2013-8-4,82.8,71.4,62.7,61.0,55.1,49.2,76,58,33,29.83,29.70,12,2,18,0.02
2013-8-5,76.8,67.9,58.7,52.4,45.9,37.4,77,48,25,29.99,29.83,14,3,22,0.00
2013-8-6,80.9,68.6,55.9,55.3,48.7,43.7,78,52,27,30.09,29.99,7,1,13,0.00
2013-8-7,82.2,71.1,60.9,59.3,53.1,44.3,89,57,30,30.13,30.05,12,1,16,0.00
2013-8-8,82.0,73.4,66.8,69.5,64.7,51.8,91,75,57,30.08,29.94,11,2,15,0.05
2013-8-9,75.8,73.8,72.1,74.5,71.3,68.8,96,92,86,29.97,29.69,12,2,18,1.17
2013-8-10,84.7,75.8,68.3,72.2,60.3,51.6,96,63,35,29.94,29.73,15,2,20,0.01
2013-8-11,81.2,71.1,59.3,58.3,52.1,45.5,81,54,31,30.02,29.94,11,1,14,0.00
2013-8-12,84.7,74.0,64.2,63.5,56.5,47.9,81,58,28,29.97,29.86,10,1,15,0.00
2013-8-13,76.7,71.4,68.3,66.3,62.4,59.5,81,74,58,29.86,29.63,7,0,12,0.00
2013-8-14,76.0,69.0,63.4,63.8,52.8,47.3,88,58,37,29.90,29.60,17,4,26,0.00
2013-8-15,78.5,68.0,57.6,53.0,49.5,43.9,78,55,31,30.05,29.90,11,1,19,0.00
2013-8-16,80.1,70.3,58.6,57.0,52.0,47.4,79,55,33,30.13,30.04,15,1,17,0.00
2013-8-17,79.8,70.6,60.9,58.3,55.1,49.9,82,60,39,30.22,30.13,9,1,12,0.00
2013-8-18,83.2,72.5,64.2,60.1,57.1,51.9,81,60,37,30.21,30.03,5,0,11,0.00
2013-8-19,84.1,73.4,62.6,60.6,57.9,53.0,86,61,35,30.03,29.89,11,1,14,0.00
2013-8-20,88.6,77.8,67.3,62.4,59.0,53.1,78,55,31,30.02,29.92,8,0,13,0.00
2013-8-21,91.0,78.9,66.9,64.2,60.9,56.3,79,57,34,30.08,29.96,7,0,14,0.00
2013-8-22,89.0,78.1,69.6,69.9,65.6,61.6,87,67,42,29.97,29.76,14,1,15,0.00
2013-8-23,80.9,73.6,67.4,69.2,58.1,48.0,89,60,38,30.06,29.76,16,2,18,0.00
2013-8-24,77.2,67.7,58.1,49.2,44.4,36.6,71,45,27,30.27,30.07,10,2,16,0.00
2013-8-25,84.5,71.3,56.9,54.9,49.6,42.8,83,50,25,30.30,30.13,9,1,12,0.00
2013-8-26,84.0,74.0,67.3,65.0,60.0,54.9,76,62,45,30.13,29.81,11,1,20,0.00
2013-8-27,80.9,73.9,69.9,69.5,66.3,62.6,94,78,57,29.83,29.77,9,1,11,0.02
2013-8-28,83.6,71.9,64.8,66.2,64.0,62.1,93,78,50,29.92,29.80,7,1,12,0.00
2013-8-29,67.4,65.4,63.2,64.1,61.0,56.5,93,86,79,30.01,29.90,12,2,16,0.00
2013-8-30,83.6,72.4,63.4,67.6,61.7,57.4,83,71,49,29.97,29.76,9,1,13,0.00
2013-8-31,83.0,75.9,69.9,72.4,69.8,66.8,92,82,67,29.78,29.73,12,1,14,0.00
2013-9-1,79.9,74.2,70.4,75.3,70.7,65.8,95,89,79,29.82,29.73,6,1,12,0.25
2013-9-2,84.3,76.0,71.8,73.6,71.1,67.9,94,86,66,29.81,29.66,15,1,17,0.08
2013-9-3,83.2,75.0,67.8,71.8,67.0,57.6,96,78,54,29.75,29.63,11,1,15,0.01
2013-9-4,81.8,71.8,61.6,58.5,54.7,50.3,83,58,35,29.86,29.75,13,2,19,0.00
2013-9-5,68.4,64.8,57.0,62.6,55.9,44.1,92,73,62,30.08,29.80,9,1,11,0.08
2013-9-6,70.1,60.6,49.6,44.9,40.2,32.9,75,50,26,30.18,30.03,11,1,13,0.00
2013-9-7,80.5,66.9,53.9,55.3,47.3,42.7,72,52,28,30.03,29.80,7,1,12,0.00
2013-9-8,76.7,66.9,56.3,59.4,49.9,35.9,78,56,30,30.03,29.69,19,3,23,0.00
2013-9-9,71.6,60.7,48.9,49.7,42.4,36.5,74,53,30,30.18,30.03,6,1,16,0.00
2013-9-10,76.7,68.4,58.7,69.2,61.3,49.4,92,78,70,30.10,29.97,11,1,16,0.07
2013-9-11,96.1,82.3,70.3,74.8,69.9,62.7,95,70,35,30.01,29.87,11,1,14,0.00
2013-9-12,89.3,78.9,68.6,72.3,69.2,61.9,94,74,51,29.91,29.62,15,2,21,0.60
2013-9-13,80.5,69.8,61.0,68.2,64.1,53.7,96,83,54,29.69,29.50,12,1,17,0.16
2013-9-14,67.6,62.2,56.5,53.7,51.6,49.2,81,69,56,30.00,29.69,12,2,15,0.01
2013-9-15,73.3,62.1,51.6,51.1,48.1,42.6,91,64,38,30.10,30.00,7,1,13,0.00
2013-9-16,68.8,60.3,51.0,53.6,48.5,37.5,80,66,51,30.18,29.95,16,2,25,0.01
2013-9-17,62.1,53.7,43.3,43.6,36.5,30.3,75,54,33,30.36,30.19,12,2,19,0.00
2013-9-18,73.9,59.6,46.7,48.9,42.4,34.9,87,58,25,30.27,30.08,6,0,12,0.00
2013-9-19,78.6,64.8,51.7,54.1,49.7,46.3,83,61,33,30.08,29.97,7,0,10,0.00
2013-9-20,78.8,65.7,54.1,57.4,54.0,50.2,91,69,38,30.03,29.94,6,0,9,0.00
2013-9-21,76.8,67.5,58.0,65.1,59.4,55.3,95,77,52,29.97,29.68,16,2,24,0.00
2013-9-22,71.8,66.0,54.8,67.2,56.3,43.5,95,73,41,29.77,29.55,17,3,24,0.41
2013-9-23,63.5,55.0,48.0,45.2,40.2,37.9,76,58,43,29.94,29.77,14,4,20,0.00
2013-9-24,66.6,55.2,45.1,44.4,40.4,38.0,80,60,36,29.93,29.75,13,2,17,0.00
2013-9-25,66.8,57.1,48.5,48.2,45.2,43.2,84,66,46,29.92,29.82,13,1,14,0.00
2013-9-26,65.2,59.3,55.0,49.6,46.8,43.1,74,64,47,30.07,29.92,9,1,13,0.00
2013-9-27,67.3,60.1,54.7,51.5,49.2,47.1,84,68,54,30.20,30.06,11,2,15,0.00
2013-9-28,73.0,60.0,50.5,55.6,51.5,48.8,94,76,49,30.27,30.19,9,1,15,0.00
2013-9-29,67.1,57.2,49.9,57.4,50.4,43.4,97,80,45,30.21,30.06,7,1,10,0.00
2013-9-30,67.6,57.6,50.7,53.9,50.1,45.1,97,78,46,30.07,29.91,6,0,11,0.00
2013-10-1,75.8,61.9,49.8,53.7,49.9,43.2,94,69,32,29.91,29.78,10,1,16,0.00
2013-10-2,80.1,68.7,57.8,58.4,56.1,53.4,88,66,46,29.89,29.76,20,2,20,0.00
2013-10-3,78.6,67.1,57.3,56.2,48.7,38.9,85,56,27,30.02,29.89,6,1,11,0.00
2013-10-4,66.0,61.8,56.3,58.6,52.8,48.6,85,73,62,30.03,29.97,5,0,6,0.02
2013-10-5,72.8,63.9,60.4,57.7,55.3,52.2,89,75,54,30.07,29.99,7,1,7,0.00
2013-10-6,62.4,58.3,56.0,58.0,55.6,53.6,94,91,73,30.17,30.06,12,2,14,0.30
2013-10-7,78.1,68.4,59.3,70.3,63.7,52.9,97,86,68,30.07,29.77,19,3,30,0.02
2013-10-8,65.8,59.9,53.2,52.7,42.1,32.5,73,54,30,30.31,29.84,16,3,20,0.00
2013-10-9,62.1,54.4,47.3,46.2,42.4,37.8,87,65,42,30.41,30.31,12,2,15,0.00
2013-10-10,62.9,54.4,46.1,52.4,48.4,43.9,92,81,63,30.30,30.12,7,1,11,0.00
2013-10-11,70.3,59.1,51.1,53.9,49.2,38.2,95,72,34,30.12,30.04,9,1,11,0.00
2013-10-12,60.7,56.3,50.8,56.5,51.7,48.1,93,85,75,30.33,30.09,13,2,19,0.00
2013-10-13,60.9,54.3,46.5,48.5,45.2,41.8,89,72,51,30.39,30.32,11,2,15,0.00
2013-10-14,65.0,52.2,39.8,50.2,43.0,32.4,95,74,31,30.35,30.20,6,0,9,0.00
2013-10-15,68.4,58.2,50.5,53.1,49.5,47.4,91,74,52,30.21,30.13,7,1,12,0.00
2013-10-16,63.2,57.7,51.7,54.8,52.9,49.9,95,84,72,30.12,29.86,6,0,9,0.00
2013-10-17,72.8,62.8,54.4,59.7,56.8,52.9,96,82,59,29.86,29.66,10,1,14,0.00
2013-10-18,68.4,62.3,52.5,61.1,50.2,41.2,95,68,40,29.84,29.55,16,3,24,0.04
2013-10-19,67.8,57.3,46.2,45.7,41.1,37.2,78,57,33,29.92,29.70,11,1,14,0.00
2013-10-20,62.0,55.7,47.6,51.2,38.8,28.3,91,57,28,29.95,29.63,21,3,23,0.00
2013-10-21,66.8,54.8,43.1,44.1,38.1,34.7,79,56,33,30.06,29.94,10,1,14,0.00
2013-10-22,68.9,57.3,47.9,51.0,45.3,36.5,88,66,44,29.94,29.64,10,1,17,0.00
2013-10-23,52.9,48.5,42.3,36.6,32.9,28.7,78,56,40,29.74,29.53,9,0,10,0.00
2013-10-24,53.8,47.3,40.6,34.1,27.6,19.4,71,48,28,29.82,29.57,15,2,21,0.00
2013-10-25,50.8,43.8,38.0,33.7,27.4,23.6,75,53,36,30.09,29.82,15,2,18,0.00
2013-10-26,56.0,45.9,35.2,35.7,28.7,21.5,79,54,27,30.09,29.82,11,1,22,0.00
2013-10-27,55.7,49.3,43.3,39.6,32.8,25.6,82,55,34,30.00,29.76,17,2,21,0.01
2013-10-28,59.3,47.6,38.2,32.5,29.6,22.3,74,51,32,30.29,30.00,18,2,25,0.00
2013-10-29,49.5,41.5,34.0,33.8,26.8,21.0,81,57,33,30.38,30.29,7,1,12,0.00
2013-10-30,52.9,43.8,37.6,41.4,36.3,32.8,83,75,59,30.31,30.13,4,0,9,0.01
2013-10-31,63.2,52.4,38.9,59.0,47.3,34.3,89,83,73,30.18,29.75,10,1,19,0.03
2013-11-1,71.8,65.3,60.2,61.9,57.4,52.8,91,76,59,29.73,29.40,20,4,31,0.10
2013-11-2,67.1,58.4,51.3,52.8,43.7,35.6,82,61,32,29.67,29.52,11,1,16,0.00
2013-11-3,53.3,42.9,34.3,46.6,29.3,12.8,87,61,33,30.35,29.66,15,3,19,0.02
2013-11-4,42.5,36.0,30.0,24.2,17.9,10.8,70,49,28,30.64,30.36,11,2,17,0.00
2013-11-5,50.2,40.3,30.4,34.3,26.9,21.4,74,60,38,30.66,30.46,6,0,10,0.00
2013-11-6,61.2,52.4,42.8,50.0,40.5,32.7,85,65,44,30.46,29.98,14,2,18,0.00
2013-11-7,67.6,55.8,42.9,58.8,49.7,30.6,90,81,60,29.98,29.61,14,2,20,0.23
2013-11-8,49.8,41.4,35.3,32.9,25.3,19.6,68,53,39,30.03,29.75,19,4,26,0.00
2013-11-9,46.4,40.4,32.9,27.6,21.8,16.4,64,48,30,30.15,29.98,14,2,21,0.00
2013-11-10,58.6,48.1,43.5,42.3,34.6,27.5,83,60,40,29.98,29.67,17,2,24,0.01
2013-11-11,52.3,46.5,40.2,31.2,25.8,18.9,58,45,27,30.03,29.78,16,3,23,0.00
2013-11-12,49.1,37.4,29.3,38.3,23.9,13.8,84,59,45,30.13,29.83,15,4,20,0.04
2013-11-13,37.2,31.0,25.4,15.3,12.3,6.7,64,47,29,30.22,30.11,18,3,23,0.00
2013-11-14,51.3,41.3,30.1,22.6,17.7,14.1,53,40,27,30.10,29.97,12,2,20,0.00
2013-11-15,62.6,49.2,38.0,32.7,19.6,12.4,58,33,15,30.13,30.04,10,1,14,0.00
2013-11-16,60.7,48.8,41.9,32.8,27.6,17.5,69,46,19,30.26,30.12,7,1,13,0.00
2013-11-17,58.7,50.0,38.9,56.3,42.8,31.5,93,77,63,30.26,29.80,6,0,11,0.05
2013-11-18,66.3,60.7,49.6,62.1,46.7,30.2,94,64,35,29.78,29.47,15,3,22,0.14
2013-11-19,49.5,41.2,32.4,30.6,19.7,14.8,50,42,32,30.21,29.59,18,6,26,0.00
2013-11-20,42.5,35.2,29.8,14.9,11.8,6.8,53,39,23,30.56,30.21,14,3,20,0.00
2013-11-21,48.9,38.4,27.2,30.0,18.5,13.0,61,46,26,30.58,30.32,7,1,12,0.00
2013-11-22,48.2,46.1,42.6,45.9,41.3,30.0,92,84,62,30.32,29.76,6,0,7,0.12
2013-11-23,48.9,41.9,30.9,46.3,24.5,11.5,92,53,27,29.84,29.72,23,6,27,0.00
2013-11-24,30.9,25.4,21.3,15.6,1.2,-9.0,60,36,20,30.12,29.72,28,9,40,0.00
2013-11-25,34.1,26.5,18.1,15.9,-0.1,-12.0,50,32,14,30.30,30.12,15,4,20,0.00
2013-11-26,45.1,38.9,32.5,42.0,22.1,14.7,89,52,36,30.27,29.99,10,2,16,0.04
2013-11-27,63.1,53.1,38.3,61.0,50.8,33.8,95,92,84,29.97,29.14,24,5,30,1.62
2013-11-28,38.2,32.4,26.6,34.4,14.3,1.4,87,49,27,30.38,29.39,24,6,31,0.00
2013-11-29,34.3,28.6,23.3,14.2,8.4,0.9,59,43,27,30.69,30.38,12,3,16,0.00
2013-11-30,35.0,27.7,19.1,22.4,13.3,5.8,62,54,47,30.73,30.38,8,1,11,0.00
2013-12-1,43.8,39.2,34.1,40.7,33.6,22.4,92,81,62,30.37,29.95,6,1,12,0.12
2013-12-2,41.2,39.1,37.8,39.3,36.9,35.0,94,92,89,29.94,29.86,7,1,10,0.00
2013-12-3,49.2,40.8,36.6,36.1,33.1,29.8,92,76,48,29.88,29.78,8,2,14,0.00
2013-12-4,44.9,38.5,32.8,29.9,27.2,23.6,84,65,44,30.13,29.88,13,1,15,0.00
2013-12-5,55.9,46.6,35.9,53.6,39.8,26.0,92,77,64,30.15,29.86,11,1,17,0.00
2013-12-6,57.2,50.4,35.9,54.8,44.0,29.4,92,80,49,30.07,29.80,11,2,19,0.26
2013-12-7,40.5,35.4,30.4,33.6,25.7,16.7,91,69,46,30.39,30.03,17,3,24,0.06
2013-12-8,32.4,30.0,26.4,18.1,13.6,10.0,60,50,42,30.54,30.39,7,1,12,0.00
2013-12-9,42.8,35.6,27.5,41.1,31.7,11.5,94,86,45,30.44,29.82,19,2,19,0.33
2013-12-10,36.5,33.1,26.9,34.0,28.8,14.2,93,85,57,29.94,29.73,13,2,26,0.02
2013-12-11,32.2,27.4,24.2,17.8,16.4,14.7,68,63,51,30.15,29.94,13,3,23,0.00
2013-12-12,26.3,23.2,18.3,16.2,5.0,-4.0,69,47,26,30.21,30.01,12,3,22,0.00
2013-12-13,30.1,23.5,16.7,15.7,8.4,0.0,63,52,39,30.33,29.93,16,4,24,0.00
2013-12-14,30.9,18.2,11.7,29.1,5.4,-8.0,93,59,37,30.55,30.09,14,3,23,0.24
2013-12-15,36.6,29.5,23.0,35.5,27.3,20.1,96,92,74,30.07,29.34,17,5,32,1.07
2013-12-16,29.0,25.8,19.9,20.9,11.7,3.2,76,56,33,30.14,29.68,18,4,23,0.00
2013-12-17,22.9,17.0,9.5,19.6,8.4,-1.0,90,69,52,30.23,29.88,11,2,14,0.35
2013-12-18,34.4,26.4,17.8,23.6,18.8,14.3,89,74,51,30.01,29.80,16,4,20,0.01
2013-12-19,43.2,35.2,26.6,26.1,22.4,19.1,74,60,44,30.05,29.89,17,2,23,0.00
2013-12-20,53.9,44.6,37.2,36.1,30.9,25.6,66,59,46,30.06,29.84,9,1,13,0.00
2013-12-21,58.6,51.0,44.9,47.7,42.3,32.8,82,73,60,29.89,29.80,7,1,12,0.00
2013-12-22,56.3,44.9,36.5,52.7,41.7,34.4,93,89,80,29.97,29.74,15,2,22,0.00
2013-12-23,38.5,35.5,33.5,37.2,34.1,32.2,96,95,93,30.03,29.91,7,1,14,0.48
2013-12-24,38.5,33.7,28.1,37.1,21.0,12.3,95,61,40,30.14,29.98,13,3,20,0.00
2013-12-25,28.1,21.2,15.4,12.7,2.6,-3.0,55,44,34,30.48,30.13,16,3,21,0.00
2013-12-26,36.3,29.5,21.3,31.0,21.5,3.3,85,73,45,30.44,30.02,8,1,14,0.02
2013-12-27,34.6,30.4,26.0,22.7,19.0,16.4,79,63,49,30.21,30.13,11,2,18,0.00
2013-12-28,47.9,37.5,28.1,25.8,23.1,19.1,73,57,38,30.15,29.92,13,2,20,0.00
2013-12-29,45.2,40.1,35.8,40.3,31.6,23.4,93,72,57,29.97,29.34,14,2,21,1.01
2013-12-30,43.2,34.6,20.5,36.0,22.8,7.3,93,66,34,30.10,29.46,17,4,30,0.00
2013-12-31,26.6,20.7,15.1,13.5,2.8,-9.0,62,45,31,30.11,29.96,12,2,15,0.00
2014-1-1,28.4,23.8,19.7,9.9,5.1,2.5,56,44,33,30.32,30.12,13,3,19,0.00
2014-1-2,23.8,14.4,2.6,15.1,9.2,-2.0,86,80,47,30.30,29.79,18,5,29,0.17